Pinyon Pines, California
Current Conditions -  °F | °C
As of 7:53 AM on Thursday 27 Nov 2014 (Local Time) from KPSP Reporting Station
Clear Clear  
Wind Chill: 58°   Ceiling: Unl
Heat Index: 58°   Visibility: 10mi
Dew Point: 24°   Wind: 6mph
Humidity: 27%   Direction: 320°NW
Pressure: 30.2"   Gusts: NA
Location:  33.6134°N, 116.54°W
Report Text: KPSP 271553Z 32005KT 10SM CLR 14/M04 A3020 RMK AO2 SLP226 T01441044
Loading
Personal Weather Stations






























Interactive Weather Map New forecast layout! Learn more

10-Day Weather Forecast

Advertisements
Track Severe Weather on mobile